AirNav   TITAN Aviation Fuels
 
 1136 users online  

22FD Destin Emergency Care Center Heliport
Destin, Florida, USA

GOING TO DESTIN?


FAA INFORMATION EFFECTIVE 22 APRIL 2021

Location

FAA Identifier: 22FD
Lat/Long: 30-23-38.0000N 086-28-17.0000W
30-23.633333N 086-28.283333W
30.3938889,-86.4713889
(estimated)
Elevation: 13 ft. / 4 m (estimated)
Time zone: UTC -5 (UTC -6 during Standard Time)
Zip code: 32541

Heliport Operations

Heliport use: Private use, MEDICAL USE.
Activation date: 01/2007
Control tower: no
ARTCC: JACKSONVILLE CENTER
FSS: GAINESVILLE FLIGHT SERVICE STATION
Attendance: CONTINUOUS
Wind indicator: lighted
Segmented circle: no
Lights: SS-SR
Beacon: white-green-yellow (heliport)

Heliport Communications

WX ASOS at DTS (0.4 nm N): 133.925 (850-654-7128)

Nearby radio navigation aids

VOR radial/distance  VOR name  Freq  Var
CEWr155/28.1CRESTVIEW VORTAC115.9003E

 
NDB name  Hdg/Dist  Freq  Var  ID
LYNNE280/35.927804WPFN .--. ..-. -.
PICKENS096/36.732602WPKZ .--. -.- --..

Heliport Services

Runway Information

Helipad H1

Dimensions: 20 x 20 ft. / 6 x 6 m
Surface: concrete
Latitude: 30-23.633333N
Longitude: 086-28.283333W
Elevation: 13.0 ft.
Traffic pattern: leftleft

Heliport Ownership and Management from official FAA records

Ownership: Privately-owned
Owner: FT WALTON BEACH MEDICAL CENTER
1000 MAR WALT DRIVE
FT WALTON BEACH, FL 32547
Phone 850-862-1111
DESTIN EMERGENCY CARE CENTER IS LCTD AT 496 AIRPORT ROAD, DESTIN FL 32541.
Manager: TODD ARNO
1000 MAR WALT DRIVE
FT WALTON BEACH, FL 32547
Phone 850-863-7540
FACILITIES SERVICE MANAGER TIM ANDERSON 996 AIRPORT RD DESTIN, FL 32541 850-635-9068

Additional Remarks

ALL DEPT HELOS CTC EGLIN CLNC DLVY ON 121.6 OR 122.7
FOR CD CTC EGLIN APCH 850-882-9152 OR 850-882-9151.

Instrument Procedures

There are no published instrument procedures at 22FD.

Some nearby airports with instrument procedures:

KDTS - Destin Executive Airport (0 nm N)
KVPS - Eglin Air Force Base/Destin-Fort Walton Beach Airport (6 nm NW)
KHRT - Hurlburt Field Airport (11 nm W)
KEGI - Duke Field (Eglin AF Aux Nr 3) Airport (16 nm N)
KCEW - Bob Sikes Airport (23 nm N)
 
Loc | Ops | Rwys | IFR | FBO | Links
Com | Nav | Svcs | Stats | Notes
Aerial photo
No photo
 
Sectional chart

 
Airport distance calculator
Flying to Destin Emergency Care Center Heliport? Find the distance to fly.

From to 22FD

Sunrise and sunset
Times for 16-May-2021
 Local
(UTC-5)
 Zulu
(UTC)
Morning civil twilight05:2610:26
Sunrise05:5210:52
Sunset19:3200:32
Evening civil twilight19:5900:59

Current date and time
Zulu (UTC)  16-May-2021 23:39:42
Local (UTC-5)  16-May-2021 18:39:42
 
METAR
KDTS 162253Z 18005KT 10SM CLR 25/14 A3013 RMK AO2 SLP203 T02500139
KVPS 
5nm NW 
162256Z AUTO 17009KT 10SM CLR 25/14 A3013 RMK AO2 SLP210 T02470136 $
KHRT 
10nm W 
162256Z AUTO 19010KT 10SM CLR 26/13 A3013 RMK AO2 SLP205 T02550130 $
KEGI 
15nm N 
162256Z AUTO 18009KT 10SM CLR 26/12 A3012 RMK AO2 SLP200 T02620119 $
TAF
KVPS 
5nm NW 
161700Z 1617/1723 14012KT 9999 FEW050 SCT250 QNH3014INS BECMG 1622/1623 16009KT 9999 SCT200 QNH3009INS WND 08006KT AFT 1703 BECMG 1714/1715 14012KT 9999 SCT025 SCT200 QNH3013INS TX28/1620Z TN15/1711Z
KHRT 
10nm W 
161822Z 1618/1718 15012G18KT 9999 BKN180 QNH3022INS TX26/1618Z TN12/1711Z LAST NO AMDS AFT 1618 NEXT 1704
KEGI 
15nm N 
160101Z 1601/1707 VRB06KT 9999 SKC QNH3013INS BECMG 1614/1615 12012KT 9999 FEW250 QNH3013INS BECMG 1704/1705 08005KT 9999 SKC QNH3014INS TX27/1620Z TN15/1611Z LAST NO AMDS AFT 1601 NEXT 1709
NOTAMs
Click for the latest NOTAMs
NOTAMs are issued by the DoD/FAA and will open in a separate window not controlled by AirNav.

 

 
 

Would you like to see your business listed on this page?

 If your business provides an interesting product or service to pilots, flight crews, aircraft, or users of the Destin Emergency Care Center Heliport, you should consider listing it here.  To start the listing process, click on the button below
 
Add a business
 

Other Pages about Destin Emergency Care Center Heliport

Update a link
 
Copyright © AirNav, LLC. All rights reserved. Privacy Policy  Contact